createdAt,value
2018-03-11T00:02:20.382Z,10.90
2018-03-11T00:04:47.307Z,11.00
2018-03-11T00:07:14.191Z,10.90
2018-03-11T00:09:41.116Z,11.00
2018-03-11T00:12:08.038Z,10.90
2018-03-11T00:14:35.039Z,11.00
2018-03-11T00:17:01.972Z,10.60
2018-03-11T00:19:28.834Z,10.70
2018-03-11T00:21:55.703Z,10.70
2018-03-11T00:24:23.367Z,10.60
2018-03-11T00:26:50.235Z,10.60
2018-03-11T00:29:17.175Z,10.70
2018-03-11T00:31:44.164Z,10.70
2018-03-11T00:34:11.035Z,10.70
2018-03-11T00:36:37.980Z,10.70
2018-03-11T00:39:04.993Z,10.70
2018-03-11T00:41:31.937Z,10.60
2018-03-11T00:43:58.803Z,10.50
2018-03-11T00:46:25.731Z,10.50
2018-03-11T00:48:52.603Z,10.50
2018-03-11T00:51:19.551Z,10.50
2018-03-11T00:53:46.411Z,10.50
2018-03-11T00:56:14.009Z,10.20
2018-03-11T00:58:40.948Z,10.20
2018-03-11T01:01:07.818Z,10.20
2018-03-11T01:03:34.744Z,9.90
2018-03-11T01:06:01.618Z,10.10
2018-03-11T01:08:28.565Z,10.10
2018-03-11T01:10:55.443Z,10.10
2018-03-11T01:13:23.120Z,10.10
2018-03-11T01:15:50.114Z,10.10
2018-03-11T01:18:16.972Z,9.90
2018-03-11T01:20:43.912Z,9.80
2018-03-11T01:23:10.779Z,9.70
2018-03-11T01:25:38.403Z,9.50
2018-03-11T01:28:05.432Z,9.50
2018-03-11T01:30:32.295Z,9.60
2018-03-11T01:32:59.157Z,9.80
2018-03-11T01:35:26.081Z,9.80
2018-03-11T01:37:52.940Z,9.90
2018-03-11T01:40:19.847Z,9.90
2018-03-11T01:42:46.707Z,10.00
2018-03-11T01:45:13.658Z,10.00
2018-03-11T01:47:40.515Z,9.80
2018-03-11T01:50:07.372Z,9.80
2018-03-11T01:52:46.218Z,9.80
2018-03-11T01:55:13.840Z,10.00
2018-03-11T01:57:40.782Z,10.00
2018-03-11T02:00:07.657Z,10.00
2018-03-11T02:02:34.554Z,10.10
2018-03-11T02:05:01.477Z,10.20
2018-03-11T02:07:29.075Z,10.30
2018-03-11T02:09:56.004Z,10.30
2018-03-11T02:12:22.865Z,10.40
2018-03-11T02:14:49.859Z,10.40
2018-03-11T02:17:16.715Z,10.50
2018-03-11T02:19:44.443Z,10.30
2018-03-11T02:22:11.315Z,10.30
2018-03-11T02:24:38.243Z,10.10
2018-03-11T02:27:05.171Z,10.20
2018-03-11T02:29:32.062Z,10.30
2018-03-11T02:31:59.803Z,10.40
2018-03-11T02:34:26.664Z,10.40
2018-03-11T02:36:53.585Z,9.90
2018-03-11T02:39:20.443Z,9.90
2018-03-11T02:41:47.364Z,9.80
2018-03-11T02:44:14.229Z,9.50
2018-03-11T02:46:41.162Z,9.60
2018-03-11T02:49:08.040Z,9.40
2018-03-11T02:51:35.705Z,9.60
2018-03-11T02:54:02.657Z,9.60
2018-03-11T02:56:30.308Z,9.80
2018-03-11T02:58:57.263Z,9.80
2018-03-11T03:01:24.854Z,9.70
2018-03-11T03:03:51.726Z,9.70
2018-03-11T03:06:18.667Z,9.50
2018-03-11T03:08:45.536Z,9.40
2018-03-11T03:11:12.387Z,9.10
2018-03-11T03:13:39.311Z,8.90
2018-03-11T03:16:06.236Z,9.10
2018-03-11T03:18:33.164Z,8.90
2018-03-11T03:21:00.021Z,8.80
2018-03-11T03:23:26.944Z,8.80
2018-03-11T03:25:53.896Z,9.00
2018-03-11T03:28:20.760Z,9.10
2018-03-11T03:30:47.708Z,9.00
2018-03-11T03:33:14.671Z,8.70
2018-03-11T03:35:41.615Z,8.40
2018-03-11T03:38:08.563Z,8.30
2018-03-11T03:40:35.500Z,8.30
2018-03-11T03:43:02.416Z,8.50
2018-03-11T03:45:29.344Z,8.70
2018-03-11T03:47:57.002Z,8.80
2018-03-11T03:50:23.864Z,8.80
2018-03-11T03:52:50.795Z,9.00
2018-03-11T03:55:17.640Z,9.10
2018-03-11T03:57:45.231Z,9.00
2018-03-11T04:00:12.215Z,9.00
2018-03-11T04:02:39.083Z,9.20
2018-03-11T04:05:06.025Z,9.40
2018-03-11T04:07:32.897Z,9.50
2018-03-11T04:09:59.875Z,9.70
2018-03-11T04:12:26.730Z,9.40
2018-03-11T04:14:53.666Z,9.20
2018-03-11T04:17:20.582Z,9.00
2018-03-11T04:19:47.532Z,8.90
2018-03-11T04:22:14.431Z,9.30
2018-03-11T04:24:41.291Z,9.40
2018-03-11T04:27:08.235Z,8.90
2018-03-11T04:29:35.093Z,8.70
2018-03-11T04:32:02.767Z,9.30
2018-03-11T04:34:29.692Z,9.30
2018-03-11T04:36:56.635Z,9.60
2018-03-11T04:39:23.492Z,9.60
2018-03-11T04:41:50.419Z,9.70
2018-03-11T04:44:17.273Z,9.80
2018-03-11T04:46:44.933Z,9.50
2018-03-11T04:49:12.550Z,9.20
2018-03-11T04:51:39.474Z,9.20
2018-03-11T04:54:06.334Z,9.40
2018-03-11T04:56:33.263Z,9.20
2018-03-11T04:59:00.128Z,9.30
2018-03-11T05:01:27.040Z,9.40
2018-03-11T05:03:53.973Z,9.20
2018-03-11T05:06:21.583Z,9.40
2018-03-11T05:08:48.427Z,9.40
2018-03-11T05:11:15.356Z,9.50
2018-03-11T05:13:42.292Z,9.60
2018-03-11T05:16:09.220Z,9.50
2018-03-11T05:18:36.812Z,9.60
2018-03-11T05:21:03.741Z,9.60
2018-03-11T05:23:30.606Z,9.60
2018-03-11T05:25:58.502Z,9.60
2018-03-11T05:28:25.517Z,9.60
2018-03-11T05:30:52.375Z,9.50
2018-03-11T05:33:19.240Z,9.40
2018-03-11T05:35:46.152Z,9.40
2018-03-11T05:38:13.001Z,9.50
2018-03-11T05:40:39.919Z,9.60
2018-03-11T05:43:06.852Z,9.60
2018-03-11T05:45:33.716Z,9.60
2018-03-11T05:49:38.670Z,9.80
2018-03-11T05:52:05.623Z,9.80
2018-03-11T05:54:32.543Z,9.60
2018-03-11T05:57:00.150Z,9.80
2018-03-11T05:59:27.079Z,9.80
2018-03-11T06:01:53.936Z,9.90
2018-03-11T06:04:20.859Z,10.00
2018-03-11T06:06:47.828Z,10.00
2018-03-11T06:09:14.826Z,10.00
2018-03-11T06:11:41.749Z,10.10
2018-03-11T06:14:08.620Z,10.10
2018-03-11T06:16:36.373Z,10.40
2018-03-11T06:19:03.245Z,10.30
2018-03-11T06:21:30.204Z,10.40
2018-03-11T06:23:57.076Z,10.50
2018-03-11T06:26:23.963Z,10.00
2018-03-11T06:28:51.654Z,10.50
2018-03-11T06:31:18.522Z,10.50
2018-03-11T06:33:45.399Z,10.60
2018-03-11T06:36:12.381Z,10.60
2018-03-11T06:38:39.995Z,10.80
2018-03-11T06:41:06.968Z,10.80
2018-03-11T06:43:34.588Z,10.50
2018-03-11T06:46:01.510Z,10.50
2018-03-11T06:48:28.398Z,10.60
2018-03-11T06:50:55.339Z,10.60
2018-03-11T06:53:22.210Z,11.00
2018-03-11T06:55:49.156Z,11.20
2018-03-11T06:58:16.763Z,11.40
2018-03-11T07:00:44.439Z,11.70
2018-03-11T07:03:11.297Z,11.70
2018-03-11T07:05:38.251Z,11.40
2018-03-11T07:08:05.128Z,11.00
2018-03-11T07:10:32.736Z,10.40
2018-03-11T07:12:59.669Z,10.40
2018-03-11T07:15:26.594Z,10.40
2018-03-11T07:17:54.262Z,10.90
2018-03-11T07:20:21.856Z,11.60
2018-03-11T07:22:48.803Z,11.60
2018-03-11T07:25:15.679Z,12.10
2018-03-11T07:27:42.595Z,12.70
2018-03-11T07:30:09.443Z,13.50
2018-03-11T07:32:36.380Z,15.20
2018-03-11T07:35:03.231Z,15.60
2018-03-11T07:37:30.155Z,14.70
2018-03-11T07:39:57.111Z,14.40
2018-03-11T07:42:23.982Z,14.50
2018-03-11T07:44:50.907Z,15.50
2018-03-11T07:47:17.766Z,15.10
2018-03-11T07:49:44.662Z,14.60
2018-03-11T07:52:12.340Z,13.10
2018-03-11T07:54:39.278Z,13.20
2018-03-11T07:57:06.147Z,12.40
2018-03-11T07:59:33.118Z,12.40
2018-03-11T08:01:59.991Z,11.90
2018-03-11T08:04:27.671Z,11.50
2018-03-11T08:06:54.530Z,11.50
2018-03-11T08:09:21.457Z,11.70
2018-03-11T08:11:49.097Z,12.80
2018-03-11T08:14:16.028Z,12.80
2018-03-11T08:16:42.903Z,12.80
2018-03-11T08:19:09.899Z,12.60
2018-03-11T08:21:36.840Z,13.20
2018-03-11T08:24:03.791Z,13.40
2018-03-11T08:26:30.669Z,13.80
2018-03-11T08:28:57.599Z,14.10
2018-03-11T08:31:24.526Z,14.20
2018-03-11T08:33:51.804Z,15.10
2018-03-11T08:36:18.909Z,17.20
2018-03-11T08:38:45.845Z,17.00
2018-03-11T08:41:12.768Z,16.30
2018-03-11T08:43:40.382Z,17.90
2018-03-11T08:46:07.322Z,17.90
2018-03-11T08:48:34.248Z,19.60
2018-03-11T08:51:01.127Z,20.60
2018-03-11T08:53:28.087Z,20.10
2018-03-11T08:55:55.559Z,19.70
2018-03-11T08:58:22.632Z,20.30
2018-03-11T09:00:50.237Z,20.70
2018-03-11T09:03:19.279Z,20.70
2018-03-11T09:05:46.208Z,20.60
2018-03-11T09:08:13.132Z,20.20
2018-03-11T09:10:40.158Z,19.80
2018-03-11T09:13:07.035Z,19.20
2018-03-11T09:15:33.959Z,18.90
2018-03-11T09:18:00.915Z,18.50
2018-03-11T09:20:27.846Z,18.50
2018-03-11T09:22:54.752Z,18.40
2018-03-11T09:25:22.499Z,18.60
2018-03-11T09:27:49.380Z,18.60
2018-03-11T09:30:16.320Z,18.50
2018-03-11T09:32:43.940Z,19.00
2018-03-11T09:35:10.906Z,19.00
2018-03-11T09:37:38.043Z,19.00
2018-03-11T09:40:05.056Z,18.70
2018-03-11T09:42:32.443Z,18.50
2018-03-11T09:44:59.304Z,18.40
2018-03-11T09:47:27.389Z,18.10
2018-03-11T09:49:55.576Z,17.60
2018-03-11T09:52:23.066Z,17.60
2018-03-11T09:54:49.991Z,17.40
2018-03-11T09:57:16.872Z,17.10
2018-03-11T09:59:45.218Z,16.90
2018-03-11T10:02:12.083Z,16.70
2018-03-11T10:04:39.007Z,16.60
2018-03-11T10:07:07.356Z,16.30
2018-03-11T10:09:35.972Z,16.40
2018-03-11T10:12:04.254Z,16.20
2018-03-11T10:14:32.116Z,16.00
2018-03-11T10:16:59.388Z,15.80
2018-03-11T10:19:26.395Z,15.70
2018-03-11T10:21:54.217Z,15.60
2018-03-11T10:24:22.691Z,15.60
2018-03-11T10:26:51.287Z,15.70
2018-03-11T10:29:19.602Z,15.70
2018-03-11T10:31:46.880Z,15.70
2018-03-11T10:34:14.151Z,15.90
2018-03-11T10:36:41.236Z,15.90
2018-03-11T10:39:09.824Z,16.10
2018-03-11T10:41:38.271Z,16.00
2018-03-11T10:44:06.604Z,16.00
2018-03-11T10:46:33.473Z,16.10
2018-03-11T10:49:00.842Z,16.10
2018-03-11T10:51:28.283Z,16.20
2018-03-11T10:53:56.752Z,15.90
2018-03-11T10:56:25.915Z,16.40
2018-03-11T10:58:54.377Z,16.40
2018-03-11T11:01:22.816Z,16.60
2018-03-11T11:03:52.255Z,17.00
2018-03-11T11:06:20.794Z,16.90
2018-03-11T11:08:48.902Z,17.30
2018-03-11T11:11:15.888Z,17.40
2018-03-11T11:13:42.770Z,17.60
2018-03-11T11:16:10.865Z,17.90
2018-03-11T11:18:39.418Z,17.90
2018-03-11T11:21:08.490Z,17.90
2018-03-11T11:23:37.015Z,17.90
2018-03-11T11:26:05.403Z,18.10
2018-03-11T11:28:34.557Z,17.80
2018-03-11T11:31:02.839Z,17.80
2018-03-11T11:33:30.364Z,17.80
2018-03-11T11:35:58.843Z,17.50
2018-03-11T11:38:27.387Z,17.50
2018-03-11T11:40:56.721Z,17.50
2018-03-11T11:43:24.362Z,17.50
2018-03-11T11:45:51.671Z,17.50
2018-03-11T11:48:20.038Z,17.60
2018-03-11T11:50:47.364Z,17.90
2018-03-11T11:53:15.755Z,18.10
2018-03-11T11:55:42.696Z,18.40
2018-03-11T11:58:10.120Z,17.20
2018-03-11T12:00:49.268Z,17.70
2018-03-11T12:03:17.245Z,18.00
2018-03-11T12:05:53.100Z,18.40
2018-03-11T12:08:25.468Z,18.50
2018-03-11T12:10:54.719Z,18.80
2018-03-11T12:13:39.580Z,18.50
2018-03-11T12:16:24.069Z,18.50
2018-03-11T12:18:52.037Z,18.40
2018-03-11T12:21:19.011Z,18.30
2018-03-11T12:23:45.955Z,18.50
2018-03-11T12:26:12.896Z,18.40
2018-03-11T12:28:39.860Z,18.40
2018-03-11T12:31:06.757Z,17.40
2018-03-11T12:33:33.626Z,17.00
2018-03-11T12:36:01.312Z,17.30
2018-03-11T12:38:28.175Z,17.30
2018-03-11T12:40:55.110Z,17.50
2018-03-11T12:43:22.055Z,17.60
2018-03-11T12:45:49.021Z,17.60
2018-03-11T12:48:18.121Z,17.70
2018-03-11T12:50:45.951Z,17.60
2018-03-11T12:53:12.825Z,17.60
2018-03-11T12:55:39.771Z,17.50
2018-03-11T12:58:06.723Z,17.50
2018-03-11T13:00:33.598Z,17.60
2018-03-11T13:03:00.540Z,17.60
2018-03-11T13:05:27.475Z,17.60
2018-03-11T13:07:54.362Z,17.70
2018-03-11T13:10:22.068Z,18.10
2018-03-11T13:12:48.969Z,18.10
2018-03-11T13:15:16.604Z,18.30
2018-03-11T13:17:43.538Z,18.30
2018-03-11T13:20:22.626Z,18.50
2018-03-11T13:22:49.556Z,18.70
2018-03-11T13:25:17.290Z,19.20
2018-03-11T13:27:56.419Z,19.20
2018-03-11T13:30:23.408Z,19.60
2018-03-11T13:33:11.043Z,19.90
2018-03-11T13:35:38.043Z,20.00
2018-03-11T13:38:17.695Z,19.10
2018-03-11T13:40:45.496Z,19.30
2018-03-11T13:43:12.443Z,19.20
2018-03-11T13:45:51.336Z,19.70
2018-03-11T13:48:18.341Z,19.70
2018-03-11T13:50:45.212Z,19.80
2018-03-11T13:53:24.108Z,19.70
2018-03-11T13:55:50.992Z,19.50
2018-03-11T13:58:29.919Z,19.30
2018-03-11T14:00:56.789Z,19.20
2018-03-11T14:03:24.451Z,19.10
2018-03-11T14:05:52.055Z,19.20
2018-03-11T14:08:18.972Z,19.10
2018-03-11T14:10:45.853Z,19.00
2018-03-11T14:13:12.786Z,19.00
2018-03-11T14:15:39.664Z,19.00
2018-03-11T14:18:06.596Z,19.20
2018-03-11T14:20:33.527Z,19.30
2018-03-11T14:23:00.453Z,19.40
2018-03-11T14:25:27.399Z,19.50
2018-03-11T14:27:54.263Z,19.50
2018-03-11T14:30:21.240Z,19.40
2018-03-11T14:32:48.115Z,19.50
2018-03-11T14:35:15.790Z,19.20
2018-03-11T14:37:42.762Z,19.20
2018-03-11T14:40:09.639Z,19.20
2018-03-11T14:42:36.587Z,19.20
2018-03-11T14:45:03.640Z,19.00
2018-03-11T14:47:31.251Z,18.90
2018-03-11T14:49:58.120Z,18.90
2018-03-11T14:52:25.083Z,18.80
2018-03-11T14:54:52.084Z,18.40
2018-03-11T14:57:19.109Z,18.50
2018-03-11T14:59:46.007Z,18.50
2018-03-11T15:02:12.941Z,18.30
2018-03-11T15:04:39.810Z,18.20
2018-03-11T15:07:06.700Z,18.20
2018-03-11T15:09:34.416Z,17.90
2018-03-11T15:12:01.272Z,17.90
2018-03-11T15:14:28.230Z,17.90
2018-03-11T15:16:55.127Z,17.80
2018-03-11T15:19:22.099Z,17.70
2018-03-11T15:21:49.099Z,17.60
2018-03-11T15:24:16.790Z,17.40
2018-03-11T15:26:43.719Z,17.40
2018-03-11T15:29:10.592Z,17.30
2018-03-11T15:31:37.546Z,17.30
2018-03-11T15:34:04.495Z,17.30
2018-03-11T15:36:31.370Z,17.30
2018-03-11T15:38:58.298Z,17.20
2018-03-11T15:41:25.167Z,17.20
2018-03-11T15:43:52.848Z,17.20
2018-03-11T15:46:20.472Z,17.20
2018-03-11T15:48:47.392Z,17.10
2018-03-11T15:51:14.363Z,17.20
2018-03-11T15:53:55.353Z,17.20
2018-03-11T15:56:23.330Z,17.20
2018-03-11T15:58:50.266Z,17.20
2018-03-11T16:01:17.228Z,17.10
2018-03-11T16:03:44.858Z,17.20
2018-03-11T16:06:11.806Z,17.20
2018-03-11T16:08:40.831Z,17.20
2018-03-11T16:11:08.547Z,17.10
2018-03-11T16:13:35.428Z,17.10
2018-03-11T16:16:05.741Z,17.10
2018-03-11T16:18:33.704Z,17.00
2018-03-11T16:21:02.002Z,17.00
2018-03-11T16:23:29.183Z,16.90
2018-03-11T16:25:57.180Z,16.90
2018-03-11T16:28:24.129Z,16.90
2018-03-11T16:30:51.086Z,16.80
2018-03-11T16:33:25.094Z,16.70
2018-03-11T16:35:57.318Z,16.70
2018-03-11T16:38:25.614Z,16.60
2018-03-11T16:40:52.892Z,16.50
2018-03-11T16:43:22.247Z,16.50
2018-03-11T16:45:51.036Z,16.30
2018-03-11T16:48:23.525Z,16.30
2018-03-11T16:50:53.020Z,16.20
2018-03-11T16:53:22.141Z,16.20
2018-03-11T16:55:52.724Z,16.20
2018-03-11T16:58:27.385Z,16.00
2018-03-11T17:01:00.224Z,15.90
2018-03-11T17:03:28.089Z,15.90
2018-03-11T17:05:56.519Z,15.80
2018-03-11T17:08:23.466Z,15.70
2018-03-11T17:10:53.530Z,15.70
2018-03-11T17:13:25.318Z,15.50
2018-03-11T17:15:56.982Z,15.40
2018-03-11T17:18:27.177Z,15.30
2018-03-11T17:20:54.511Z,15.20
2018-03-11T17:23:25.885Z,15.10
2018-03-11T17:26:02.681Z,15.10
2018-03-11T17:28:36.608Z,14.90
2018-03-11T17:33:57.722Z,14.80
2018-03-11T17:36:27.430Z,14.70
2018-03-11T17:38:57.786Z,14.60
2018-03-11T17:41:28.522Z,14.40
2018-03-11T17:44:00.650Z,14.40
2018-03-11T17:46:40.842Z,14.30
2018-03-11T17:49:15.621Z,14.30
2018-03-11T17:51:55.504Z,14.30
2018-03-11T17:54:33.866Z,14.30
2018-03-11T17:57:07.980Z,14.30
2018-03-11T17:59:37.352Z,14.20
2018-03-11T18:02:07.134Z,14.20
2018-03-11T18:04:34.327Z,14.20
2018-03-11T18:07:01.230Z,14.20
2018-03-11T18:09:28.855Z,14.10
2018-03-11T18:11:56.736Z,14.10
2018-03-11T18:14:23.733Z,14.10
2018-03-11T18:16:51.251Z,14.10
2018-03-11T18:19:18.147Z,14.00
2018-03-11T18:21:45.156Z,14.00
2018-03-11T18:24:13.595Z,14.00
2018-03-11T18:26:40.548Z,14.00
2018-03-11T18:29:07.443Z,14.00
2018-03-11T18:31:34.384Z,14.00
2018-03-11T18:34:01.330Z,14.00
2018-03-11T18:36:30.451Z,14.00
2018-03-11T18:38:57.403Z,13.90
2018-03-11T18:41:24.418Z,13.90
2018-03-11T18:43:51.298Z,13.90
2018-03-11T18:46:18.243Z,13.90
2018-03-11T18:48:45.125Z,13.90
2018-03-11T18:51:12.059Z,13.90
2018-03-11T18:53:39.003Z,13.80
2018-03-11T18:56:05.912Z,13.90
2018-03-11T18:58:32.849Z,13.80
2018-03-11T19:01:00.856Z,13.80
2018-03-11T19:03:27.747Z,13.80
2018-03-11T19:05:54.959Z,13.80
2018-03-11T19:08:21.880Z,13.80
2018-03-11T19:10:49.574Z,13.80
2018-03-11T19:13:16.548Z,13.80
2018-03-11T19:15:43.521Z,13.80
2018-03-11T19:18:10.405Z,13.80
2018-03-11T19:20:37.323Z,13.80
2018-03-11T19:23:05.077Z,13.70
2018-03-11T19:25:32.012Z,13.80
2018-03-11T19:27:58.877Z,13.70
2018-03-11T19:30:26.604Z,13.70
2018-03-11T19:32:53.952Z,13.70
2018-03-11T19:35:21.832Z,13.70
2018-03-11T19:37:49.618Z,13.70
2018-03-11T19:40:17.348Z,13.70
2018-03-11T19:42:45.232Z,13.60
2018-03-11T19:45:12.188Z,13.60
2018-03-11T19:47:39.474Z,13.60
2018-03-11T19:50:06.642Z,13.50
2018-03-11T19:52:33.847Z,13.50
2018-03-11T19:55:01.532Z,13.40
2018-03-11T19:57:28.547Z,13.40
2018-03-11T19:59:56.751Z,13.30
2018-03-11T20:02:26.417Z,13.30
2018-03-11T20:04:54.409Z,13.30
2018-03-11T20:07:21.631Z,13.30
2018-03-11T20:09:48.734Z,13.20
2018-03-11T20:12:16.446Z,13.30
2018-03-11T20:14:44.435Z,13.20
2018-03-11T20:17:11.707Z,13.20
2018-03-11T20:19:38.581Z,13.20
2018-03-11T20:22:06.916Z,13.20
2018-03-11T20:24:35.049Z,13.30
2018-03-11T20:27:02.012Z,13.30
2018-03-11T20:29:28.945Z,13.20
2018-03-11T20:31:55.818Z,13.20
2018-03-11T20:34:22.764Z,13.20
2018-03-11T20:36:51.721Z,13.20
2018-03-11T20:39:20.303Z,13.30
2018-03-11T20:41:59.607Z,13.30
2018-03-11T20:44:40.979Z,13.30
2018-03-11T20:47:24.143Z,13.40
2018-03-11T20:50:07.299Z,13.40
2018-03-11T20:52:49.737Z,13.30
2018-03-11T20:55:31.561Z,13.30
2018-03-11T20:58:01.187Z,13.30
2018-03-11T21:00:42.551Z,13.20
2018-03-11T21:03:24.060Z,13.20
2018-03-11T21:05:56.754Z,13.20
2018-03-11T21:08:36.837Z,13.20
2018-03-11T21:11:16.378Z,13.20
2018-03-11T21:13:55.981Z,13.20
2018-03-11T21:16:37.734Z,13.20
2018-03-11T21:19:18.219Z,13.20
2018-03-11T21:21:46.114Z,13.30
2018-03-11T21:24:13.147Z,13.30
2018-03-11T21:26:44.102Z,13.30
2018-03-11T21:29:22.407Z,13.30
2018-03-11T21:31:58.321Z,13.30
2018-03-11T21:34:26.213Z,13.30
2018-03-11T21:36:54.542Z,13.30
2018-03-11T21:39:28.259Z,13.30
2018-03-11T21:41:57.181Z,13.30
2018-03-11T21:44:24.168Z,13.30
2018-03-11T21:46:51.072Z,13.30
2018-03-11T21:49:18.000Z,13.30
2018-03-11T21:51:58.128Z,13.30
2018-03-11T21:54:39.929Z,13.30
2018-03-11T21:57:20.777Z,13.30
2018-03-11T22:00:02.080Z,13.30
2018-03-11T22:02:43.052Z,13.30
2018-03-11T22:05:19.389Z,13.30
2018-03-11T22:07:46.999Z,13.30
2018-03-11T22:10:13.953Z,13.30
2018-03-11T22:12:40.820Z,13.30
2018-03-11T22:15:08.110Z,13.30
2018-03-11T22:17:34.999Z,13.30
2018-03-11T22:20:01.924Z,13.30
2018-03-11T22:22:28.920Z,13.30
2018-03-11T22:24:55.810Z,13.30
2018-03-11T22:27:22.849Z,13.20
2018-03-11T22:29:49.873Z,13.20
2018-03-11T22:32:16.824Z,13.20
2018-03-11T22:34:43.743Z,13.10
2018-03-11T22:37:10.603Z,13.10
2018-03-11T22:39:38.294Z,12.90
2018-03-11T22:42:05.199Z,12.90
2018-03-11T22:44:32.087Z,13.00
2018-03-11T22:46:59.021Z,13.00
2018-03-11T22:49:25.907Z,13.00
2018-03-11T22:51:52.847Z,13.00
2018-03-11T22:54:19.910Z,12.80
2018-03-11T22:56:46.860Z,12.90
2018-03-11T22:59:13.739Z,12.90
2018-03-11T23:01:40.606Z,12.90
2018-03-11T23:04:07.540Z,12.90
2018-03-11T23:06:34.484Z,12.90
2018-03-11T23:09:01.363Z,12.90
2018-03-11T23:11:28.291Z,12.90
2018-03-11T23:13:55.234Z,12.90
2018-03-11T23:16:22.119Z,12.70
2018-03-11T23:19:01.011Z,12.80
2018-03-11T23:21:27.887Z,12.70
2018-03-11T23:23:54.754Z,12.70
2018-03-11T23:26:21.760Z,12.70
2018-03-11T23:28:48.633Z,12.70
2018-03-11T23:31:15.648Z,12.70
2018-03-11T23:33:42.628Z,12.80
2018-03-11T23:36:09.496Z,12.80
2018-03-11T23:38:37.180Z,12.80
2018-03-11T23:41:04.163Z,12.80
2018-03-11T23:43:31.103Z,12.90
2018-03-11T23:45:57.962Z,12.80
2018-03-11T23:48:24.827Z,12.70
2018-03-11T23:50:51.751Z,12.80
2018-03-11T23:53:18.599Z,12.70
2018-03-11T23:55:45.544Z,12.70
2018-03-11T23:58:12.428Z,12.80
